createdAt,value
2023-01-23T00:01:44.515Z,103161.72
2023-01-23T00:04:17.372Z,103171.66
2023-01-23T00:06:53.177Z,103168.94
2023-01-23T00:09:26.074Z,103170.88
2023-01-23T00:11:59.317Z,103162.59
2023-01-23T00:14:32.067Z,103165.00
2023-01-23T00:17:04.651Z,103168.19
2023-01-23T00:19:55.908Z,103164.25
2023-01-23T00:22:28.839Z,103167.47
2023-01-23T00:27:43.452Z,103156.34
2023-01-23T00:30:19.279Z,103152.78
2023-01-23T00:32:52.298Z,103177.09
2023-01-23T00:35:31.282Z,103168.31
2023-01-23T00:38:04.204Z,103187.88
2023-01-23T00:40:43.477Z,103182.66
2023-01-23T00:43:16.344Z,103172.72
2023-01-23T00:45:59.522Z,103187.03
2023-01-23T00:48:32.394Z,103195.84
2023-01-23T00:51:12.461Z,103188.31
2023-01-23T00:53:49.744Z,103197.84
2023-01-23T00:56:33.444Z,103185.13
2023-01-23T00:59:06.450Z,103209.00
2023-01-23T01:01:51.004Z,103187.94
2023-01-23T01:04:23.609Z,103194.59
2023-01-23T01:07:01.992Z,103189.16
2023-01-23T01:09:34.739Z,103193.09
2023-01-23T01:12:16.111Z,103178.84
2023-01-23T01:14:48.723Z,103181.63
2023-01-23T01:17:28.184Z,103175.28
2023-01-23T01:20:00.923Z,103187.97
2023-01-23T01:22:34.367Z,103169.72
2023-01-23T01:26:30.231Z,103191.94
2023-01-23T01:29:15.075Z,103195.59
2023-01-23T01:31:48.349Z,103192.06
2023-01-23T01:34:31.100Z,103195.22
2023-01-23T01:37:03.796Z,103198.81
2023-01-23T01:39:45.590Z,103201.94
2023-01-23T01:42:31.123Z,103187.69
2023-01-23T01:45:04.193Z,103191.69
2023-01-23T01:47:43.187Z,103204.81
2023-01-23T01:52:56.865Z,103190.13
2023-01-23T01:55:57.801Z,103212.31
2023-01-23T01:58:37.035Z,103212.00
2023-01-23T02:01:10.110Z,103217.16
2023-01-23T02:03:52.168Z,103205.25
2023-01-23T02:06:26.259Z,103210.81
2023-01-23T02:09:18.359Z,103213.59
2023-01-23T02:12:04.451Z,103186.19
2023-01-23T02:14:37.171Z,103206.06
2023-01-23T02:17:20.000Z,103208.47
2023-01-23T02:20:26.927Z,103194.59
2023-01-23T02:23:29.085Z,103203.69
2023-01-23T02:26:44.276Z,103200.50
2023-01-23T02:29:19.256Z,103181.44
2023-01-23T02:31:58.411Z,103181.47
2023-01-23T02:34:31.086Z,103190.19
2023-01-23T02:37:16.698Z,103190.19
2023-01-23T02:39:49.827Z,103202.13
2023-01-23T02:42:33.779Z,103203.72
2023-01-23T02:45:07.060Z,103190.63
2023-01-23T02:47:50.272Z,103200.16
2023-01-23T02:50:23.476Z,103178.72
2023-01-23T02:53:06.708Z,103173.16
2023-01-23T02:55:43.392Z,103198.19
2023-01-23T02:58:35.203Z,103194.59
2023-01-23T03:01:08.500Z,103186.28
2023-01-23T03:03:57.459Z,103197.81
2023-01-23T03:06:36.302Z,103195.84
2023-01-23T03:09:13.745Z,103191.09
2023-01-23T03:11:47.431Z,103203.78
2023-01-23T03:14:24.650Z,103182.34
2023-01-23T03:16:58.857Z,103192.66
2023-01-23T03:19:50.077Z,103197.84
2023-01-23T03:22:34.488Z,103189.50
2023-01-23T03:25:07.503Z,103193.88
2023-01-23T03:27:51.755Z,103197.47
2023-01-23T03:30:25.611Z,103192.72
2023-01-23T03:32:58.349Z,103187.94
2023-01-23T03:35:31.202Z,103210.59
2023-01-23T03:38:03.784Z,103201.88
2023-01-23T03:40:56.372Z,103194.34
2023-01-23T03:43:33.143Z,103189.56
2023-01-23T03:46:05.879Z,103199.09
2023-01-23T03:48:41.909Z,103193.13
2023-01-23T03:51:15.018Z,103199.09
2023-01-23T03:53:47.815Z,103200.72
2023-01-23T03:56:20.644Z,103203.88
2023-01-23T03:58:53.384Z,103193.16
2023-01-23T04:01:31.566Z,103211.84
2023-01-23T04:04:04.963Z,103195.56
2023-01-23T04:06:43.432Z,103215.03
2023-01-23T04:09:16.123Z,103200.34
2023-01-23T04:11:48.659Z,103200.75
2023-01-23T04:14:22.983Z,103192.41
2023-01-23T04:16:55.595Z,103207.81
2023-01-23T04:19:31.317Z,103206.28
2023-01-23T04:22:04.970Z,103210.28
2023-01-23T04:24:45.788Z,103201.53
2023-01-23T04:27:18.505Z,103215.06
2023-01-23T04:30:01.873Z,103222.59
2023-01-23T04:32:34.506Z,103217.44
2023-01-23T04:35:16.562Z,103224.59
2023-01-23T04:37:49.195Z,103210.31
2023-01-23T04:40:33.970Z,103205.53
2023-01-23T04:43:06.552Z,103223.81
2023-01-23T04:45:44.003Z,103222.63
2023-01-23T04:48:16.683Z,103225.41
2023-01-23T04:51:01.882Z,103221.44
2023-01-23T04:53:34.644Z,103212.31
2023-01-23T04:56:13.549Z,103214.69
2023-01-23T04:58:46.171Z,103227.03
2023-01-23T05:01:29.622Z,103219.06
2023-01-23T05:04:02.696Z,103223.41
2023-01-23T05:06:35.407Z,103216.28
2023-01-23T05:09:15.568Z,103225.44
2023-01-23T05:11:48.105Z,103228.22
2023-01-23T05:14:26.876Z,103224.63
2023-01-23T05:16:59.466Z,103232.19
2023-01-23T05:19:58.210Z,103227.41
2023-01-23T05:22:52.382Z,103238.16
2023-01-23T05:25:37.322Z,103227.81
2023-01-23T05:28:11.645Z,103246.88
2023-01-23T05:30:47.397Z,103241.34
2023-01-23T05:33:19.970Z,103244.50
2023-01-23T05:35:52.508Z,103244.13
2023-01-23T05:38:25.015Z,103242.16
2023-01-23T05:40:57.581Z,103250.50
2023-01-23T05:43:40.710Z,103247.72
2023-01-23T05:46:13.321Z,103246.13
2023-01-23T05:48:55.202Z,103245.34
2023-01-23T05:51:32.461Z,103255.66
2023-01-23T05:54:10.802Z,103249.31
2023-01-23T05:56:43.407Z,103265.63
2023-01-23T05:59:42.136Z,103271.56
2023-01-23T06:02:25.063Z,103269.16
2023-01-23T06:04:57.666Z,103262.03
2023-01-23T06:07:41.858Z,103271.56
2023-01-23T06:10:15.093Z,103269.22
2023-01-23T06:12:50.893Z,103268.41
2023-01-23T06:15:23.870Z,103269.97
2023-01-23T06:18:08.998Z,103264.41
2023-01-23T06:20:41.692Z,103270.34
2023-01-23T06:23:27.829Z,103267.16
2023-01-23T06:28:51.271Z,103268.72
2023-01-23T06:31:38.841Z,103276.66
2023-01-23T06:34:11.532Z,103279.41
2023-01-23T06:36:53.257Z,103291.31
2023-01-23T06:39:25.999Z,103292.09
2023-01-23T06:42:13.013Z,103270.56
2023-01-23T06:44:45.794Z,103272.53
2023-01-23T06:47:27.562Z,103280.00
2023-01-23T06:50:02.243Z,103280.78
2023-01-23T06:52:59.732Z,103289.47
2023-01-23T06:55:38.352Z,103284.28
2023-01-23T06:58:11.105Z,103284.66
2023-01-23T07:00:56.346Z,103291.00
2023-01-23T07:03:28.992Z,103304.50
2023-01-23T07:06:08.682Z,103301.31
2023-01-23T07:08:42.976Z,103297.28
2023-01-23T07:11:21.490Z,103313.09
2023-01-23T07:13:54.387Z,103310.72
2023-01-23T07:16:38.514Z,103319.47
2023-01-23T07:19:11.339Z,103318.66
2023-01-23T07:21:44.120Z,103313.09
2023-01-23T07:24:17.037Z,103313.91
2023-01-23T07:26:58.572Z,103317.03
2023-01-23T07:29:31.245Z,103317.84
2023-01-23T07:32:16.102Z,103324.19
2023-01-23T07:34:48.642Z,103322.22
2023-01-23T07:37:36.768Z,103332.56
2023-01-23T07:40:10.438Z,103323.81
2023-01-23T07:42:46.818Z,103329.00
2023-01-23T07:45:19.389Z,103321.84
2023-01-23T07:47:52.419Z,103340.50
2023-01-23T07:50:28.127Z,103355.25
2023-01-23T07:53:00.680Z,103355.28
2023-01-23T07:55:39.396Z,103343.34
2023-01-23T07:58:12.128Z,103352.88
2023-01-23T08:00:48.455Z,103351.28
2023-01-23T08:03:21.248Z,103344.91
2023-01-23T08:06:01.567Z,103363.19
2023-01-23T08:08:34.178Z,103355.22
2023-01-23T08:11:23.949Z,103355.97
2023-01-23T08:13:56.691Z,103359.56
2023-01-23T08:16:29.628Z,103357.59
2023-01-23T08:19:05.938Z,103361.56
2023-01-23T08:21:38.501Z,103360.75
2023-01-23T08:24:14.963Z,103360.41
2023-01-23T08:26:47.648Z,103354.41
2023-01-23T08:29:20.287Z,103357.97
2023-01-23T08:31:54.990Z,103377.06
2023-01-23T08:34:27.832Z,103377.44
2023-01-23T08:37:00.411Z,103370.66
2023-01-23T08:39:32.948Z,103376.22
2023-01-23T08:42:05.604Z,103381.00
2023-01-23T08:44:40.667Z,103369.09
2023-01-23T08:47:13.335Z,103375.44
2023-01-23T08:49:46.170Z,103378.22
2023-01-23T08:52:18.915Z,103383.34
2023-01-23T08:54:51.644Z,103377.00
2023-01-23T08:57:24.305Z,103383.34
2023-01-23T09:00:02.433Z,103389.28
2023-01-23T09:02:35.866Z,103391.66
2023-01-23T09:05:13.247Z,103392.03
2023-01-23T09:07:46.937Z,103393.25
2023-01-23T09:10:20.053Z,103389.22
2023-01-23T09:12:55.398Z,103391.63
2023-01-23T09:15:28.586Z,103394.78
2023-01-23T09:18:01.193Z,103387.56
2023-01-23T09:20:34.268Z,103393.16
2023-01-23T09:23:16.067Z,103405.91
2023-01-23T09:25:49.217Z,103393.97
2023-01-23T09:28:41.977Z,103402.28
2023-01-23T09:31:14.976Z,103391.50
2023-01-23T09:33:48.901Z,103394.69
2023-01-23T09:36:33.714Z,103387.47
2023-01-23T09:39:14.064Z,103382.69
2023-01-23T09:41:48.949Z,103392.22
2023-01-23T09:44:41.157Z,103391.41
2023-01-23T09:47:23.285Z,103382.22
2023-01-23T09:50:07.107Z,103392.56
2023-01-23T09:52:55.206Z,103394.09
2023-01-23T09:55:45.427Z,103398.50
2023-01-23T09:58:28.412Z,103396.88
2023-01-23T10:01:01.057Z,103400.06
2023-01-23T10:03:33.710Z,103396.09
2023-01-23T10:06:23.763Z,103408.03
2023-01-23T10:09:21.850Z,103415.59
2023-01-23T10:12:04.570Z,103415.25
2023-01-23T10:14:58.082Z,103410.38
2023-01-23T10:17:59.910Z,103410.44
2023-01-23T10:20:49.898Z,103416.03
2023-01-23T10:23:43.720Z,103422.78
2023-01-23T10:26:23.428Z,103422.03
2023-01-23T10:29:14.319Z,103419.25
2023-01-23T10:32:01.339Z,103412.81
2023-01-23T10:34:55.997Z,103425.59
2023-01-23T10:37:50.983Z,103420.41
2023-01-23T10:40:43.077Z,103412.06
2023-01-23T10:43:21.804Z,103418.44
2023-01-23T10:45:54.674Z,103406.47
2023-01-23T10:48:33.474Z,103408.06
2023-01-23T10:51:30.786Z,103416.78
2023-01-23T10:54:11.347Z,103413.63
2023-01-23T10:56:53.171Z,103418.41
2023-01-23T10:59:39.385Z,103416.81
2023-01-23T11:02:14.776Z,103411.22
2023-01-23T11:04:52.011Z,103410.44
2023-01-23T11:07:29.616Z,103411.22
2023-01-23T11:10:20.853Z,103402.00
2023-01-23T11:12:55.934Z,103404.06
2023-01-23T11:15:34.334Z,103408.03
2023-01-23T11:18:31.340Z,103412.38
2023-01-23T11:21:04.102Z,103395.31
2023-01-23T11:23:36.793Z,103404.00
2023-01-23T11:26:34.089Z,103401.56
2023-01-23T11:29:49.367Z,103403.16
2023-01-23T11:32:24.856Z,103402.38
2023-01-23T11:35:14.960Z,103403.19
2023-01-23T11:37:47.532Z,103406.41
2023-01-23T11:40:20.735Z,103406.03
2023-01-23T11:42:55.720Z,103402.38
2023-01-23T11:46:00.227Z,103402.34
2023-01-23T11:49:00.769Z,103397.19
2023-01-23T11:51:52.430Z,103407.16
2023-01-23T11:55:08.848Z,103405.91
2023-01-23T11:58:14.955Z,103399.94
2023-01-23T12:01:03.255Z,103407.53
2023-01-23T12:04:39.720Z,103410.28
2023-01-23T12:07:24.041Z,103416.69
2023-01-23T12:10:31.271Z,103413.44
2023-01-23T12:13:34.310Z,103409.03
2023-01-23T12:16:49.687Z,103413.03
2023-01-23T12:19:22.277Z,103406.22
2023-01-23T12:22:23.204Z,103410.63
2023-01-23T12:25:36.392Z,103409.41
2023-01-23T12:28:27.200Z,103413.84
2023-01-23T12:31:18.538Z,103417.41
2023-01-23T12:34:28.320Z,103407.81
2023-01-23T12:37:29.077Z,103406.59
2023-01-23T12:40:32.103Z,103396.66
2023-01-23T12:43:23.488Z,103390.22
2023-01-23T12:46:08.469Z,103393.44
2023-01-23T12:49:02.899Z,103386.22
2023-01-23T12:51:45.773Z,103389.47
2023-01-23T12:54:43.629Z,103396.25
2023-01-23T12:57:52.788Z,103401.41
2023-01-23T13:01:28.893Z,103386.97
2023-01-23T13:04:19.605Z,103389.81
2023-01-23T13:07:21.914Z,103394.94
2023-01-23T13:10:54.621Z,103394.16
2023-01-23T13:13:28.721Z,103392.63
2023-01-23T13:16:15.651Z,103394.19
2023-01-23T13:19:58.468Z,103391.72
2023-01-23T13:22:34.457Z,103395.00
2023-01-23T13:25:19.015Z,103392.56
2023-01-23T13:27:59.101Z,103388.16
2023-01-23T13:30:32.880Z,103389.41
2023-01-23T13:33:08.298Z,103396.56
2023-01-23T13:35:44.651Z,103402.94
2023-01-23T13:38:40.252Z,103400.53
2023-01-23T13:41:14.543Z,103401.38
2023-01-23T13:44:00.703Z,103405.72
2023-01-23T14:23:04.420Z,103422.84
2023-01-23T14:25:37.902Z,103419.69
2023-01-23T14:28:18.125Z,103424.88
2023-01-23T14:31:06.268Z,103426.88
2023-01-23T14:33:45.355Z,103419.69
2023-01-23T14:36:24.953Z,103415.75
2023-01-23T14:39:00.252Z,103424.91
2023-01-23T14:41:42.171Z,103410.59
2023-01-23T14:44:43.566Z,103419.69
2023-01-23T14:50:39.980Z,103409.38
2023-01-23T14:53:17.795Z,103402.25
2023-01-23T14:55:50.961Z,103407.34
2023-01-23T14:58:33.158Z,103398.97
2023-01-23T15:01:06.112Z,103390.59
2023-01-23T15:04:05.743Z,103382.50
2023-01-23T15:06:44.407Z,103370.19
2023-01-23T15:09:18.492Z,103359.09
2023-01-23T15:12:14.967Z,103371.38
2023-01-23T15:15:00.212Z,103371.75
2023-01-23T15:17:32.777Z,103370.56
2023-01-23T15:20:41.112Z,103357.31
2023-01-23T15:23:28.163Z,103349.78
2023-01-23T15:26:31.894Z,103353.31
2023-01-23T15:29:24.866Z,103353.31
2023-01-23T15:31:59.318Z,103358.16
2023-01-23T15:34:34.415Z,103351.00
2023-01-23T15:37:28.320Z,103354.91
2023-01-23T15:40:04.303Z,103362.97
2023-01-23T15:42:36.978Z,103370.56
2023-01-23T15:45:15.503Z,103372.16
2023-01-23T15:47:48.723Z,103371.78
2023-01-23T15:50:21.706Z,103372.56
2023-01-23T15:52:55.933Z,103374.97
2023-01-23T15:55:29.262Z,103386.78
2023-01-23T15:58:02.999Z,103386.13
2023-01-23T16:00:35.994Z,103388.97
2023-01-23T16:03:14.612Z,103384.97
2023-01-23T16:05:47.354Z,103381.38
2023-01-23T16:08:22.993Z,103392.97
2023-01-23T16:10:55.760Z,103389.41
2023-01-23T16:13:28.339Z,103395.00
2023-01-23T16:16:00.918Z,103407.75
2023-01-23T16:18:44.399Z,103404.56
2023-01-23T16:21:20.993Z,103411.38
2023-01-23T16:24:01.973Z,103407.00
2023-01-23T16:26:34.734Z,103409.41
2023-01-23T16:29:27.366Z,103403.44
2023-01-23T16:32:02.909Z,103404.56
2023-01-23T16:34:35.657Z,103393.47
2023-01-23T16:37:15.744Z,103395.06
2023-01-23T16:39:48.430Z,103404.19
2023-01-23T16:42:25.038Z,103393.44
2023-01-23T16:45:07.019Z,103390.31
2023-01-23T16:47:39.583Z,103389.47
2023-01-23T16:50:23.912Z,103393.44
2023-01-23T16:53:06.847Z,103393.00
2023-01-23T16:55:44.394Z,103398.22
2023-01-23T16:58:23.101Z,103403.81
2023-01-23T17:01:07.887Z,103407.84
2023-01-23T17:03:41.675Z,103401.03
2023-01-23T17:06:16.661Z,103405.41
2023-01-23T17:08:50.215Z,103393.47
2023-01-23T17:11:29.387Z,103405.41
2023-01-23T17:14:13.975Z,103403.81
2023-01-23T17:16:48.413Z,103399.69
2023-01-23T17:19:35.531Z,103409.38
2023-01-23T17:22:23.515Z,103416.22
2023-01-23T17:24:56.621Z,103429.41
2023-01-23T17:27:30.201Z,103418.63
2023-01-23T17:30:06.113Z,103418.63
2023-01-23T17:32:39.274Z,103422.22
2023-01-23T17:35:24.676Z,103421.44
2023-01-23T17:37:58.029Z,103425.44
2023-01-23T17:40:31.942Z,103421.47
2023-01-23T17:43:04.744Z,103427.88
2023-01-23T17:45:40.772Z,103427.50
2023-01-23T17:48:17.464Z,103424.69
2023-01-23T17:50:50.204Z,103426.25
2023-01-23T17:53:24.110Z,103439.47
2023-01-23T17:56:05.220Z,103429.47
2023-01-23T17:58:39.113Z,103430.69
2023-01-23T18:01:25.018Z,103436.66
2023-01-23T18:03:57.563Z,103425.50
2023-01-23T18:06:34.295Z,103431.16
2023-01-23T18:09:06.812Z,103436.69
2023-01-23T18:11:55.203Z,103423.56
2023-01-23T18:14:56.364Z,103437.81
2023-01-23T18:17:50.655Z,103441.47
2023-01-23T18:20:32.878Z,103440.72
2023-01-23T18:23:07.253Z,103436.69
2023-01-23T18:26:29.259Z,103448.63
2023-01-23T18:29:48.827Z,103455.81
2023-01-23T18:33:29.128Z,103443.41
2023-01-23T18:36:30.842Z,103443.88
2023-01-23T18:39:38.671Z,103454.22
2023-01-23T18:42:38.549Z,103454.22
2023-01-23T18:45:23.469Z,103453.06
2023-01-23T18:47:59.639Z,103458.66
2023-01-23T18:50:32.853Z,103455.88
2023-01-23T18:53:41.119Z,103449.47
2023-01-23T18:56:32.991Z,103456.69
2023-01-23T18:59:37.377Z,103453.84
2023-01-23T19:02:50.532Z,103461.44
2023-01-23T19:05:34.012Z,103456.69
2023-01-23T19:08:07.183Z,103444.78
2023-01-23T19:10:49.843Z,103455.09
2023-01-23T19:13:45.270Z,103459.88
2023-01-23T19:16:45.720Z,103459.06
2023-01-23T19:19:55.451Z,103455.56
2023-01-23T19:23:00.683Z,103460.69
2023-01-23T19:25:33.633Z,103466.56
2023-01-23T19:28:07.109Z,103473.47
2023-01-23T19:30:40.851Z,103467.09
2023-01-23T19:33:19.366Z,103463.94
2023-01-23T19:35:54.986Z,103461.53
2023-01-23T19:38:28.355Z,103480.31
2023-01-23T19:41:01.012Z,103470.75
2023-01-23T19:43:33.478Z,103465.19
2023-01-23T19:48:52.730Z,103467.59
2023-01-23T19:51:27.459Z,103474.38
2023-01-23T19:54:01.437Z,103474.75
2023-01-23T19:56:42.406Z,103471.97
2023-01-23T19:59:15.387Z,103471.97
2023-01-23T20:01:56.767Z,103479.97
2023-01-23T20:04:32.507Z,103471.19
2023-01-23T20:07:07.431Z,103471.25
2023-01-23T20:09:40.006Z,103466.84
2023-01-23T20:12:13.719Z,103466.91
2023-01-23T20:14:46.456Z,103479.19
2023-01-23T20:17:19.318Z,103478.78
2023-01-23T20:19:53.136Z,103484.78
2023-01-23T20:22:25.723Z,103473.66
2023-01-23T20:24:58.364Z,103476.41
2023-01-23T20:27:33.746Z,103480.03
2023-01-23T20:30:18.213Z,103482.81
2023-01-23T20:32:50.768Z,103489.50
2023-01-23T20:35:23.303Z,103483.59
2023-01-23T20:37:55.848Z,103469.72
2023-01-23T20:40:31.374Z,103483.28
2023-01-23T20:43:04.221Z,103477.31
2023-01-23T20:45:51.847Z,103477.31
2023-01-23T20:48:24.400Z,103482.50
2023-01-23T20:51:00.410Z,103479.31
2023-01-23T20:53:35.029Z,103480.94
2023-01-23T20:56:21.513Z,103488.91
2023-01-23T20:59:14.879Z,103480.16
2023-01-23T21:02:05.943Z,103485.75
2023-01-23T21:04:39.731Z,103488.53
2023-01-23T21:07:12.455Z,103490.94
2023-01-23T21:09:47.477Z,103484.19
2023-01-23T21:12:21.074Z,103478.63
2023-01-23T21:14:53.654Z,103476.66
2023-01-23T21:17:26.193Z,103479.47
2023-01-23T21:20:02.066Z,103481.06
2023-01-23T21:22:34.765Z,103467.13
2023-01-23T21:25:07.536Z,103473.53
2023-01-23T21:27:41.215Z,103471.94
2023-01-23T21:30:15.343Z,103481.16
2023-01-23T21:33:00.543Z,103483.53
2023-01-23T21:35:33.583Z,103478.38
2023-01-23T21:40:55.975Z,103481.56
2023-01-23T21:43:28.538Z,103472.41
2023-01-23T21:46:02.313Z,103479.59
2023-01-23T21:48:37.247Z,103487.59
2023-01-23T21:51:12.270Z,103490.78
2023-01-23T21:53:47.703Z,103489.19
2023-01-23T21:56:30.989Z,103489.59
2023-01-23T21:59:03.706Z,103481.66
2023-01-23T22:01:46.771Z,103478.47
2023-01-23T22:04:24.163Z,103490.38
2023-01-23T22:06:59.767Z,103489.97
2023-01-23T22:09:32.372Z,103478.81
2023-01-23T22:12:05.367Z,103484.00
2023-01-23T22:14:48.173Z,103493.50
2023-01-23T22:17:20.823Z,103483.56
2023-01-23T22:19:54.435Z,103484.34
2023-01-23T22:22:27.208Z,103481.88
2023-01-23T22:25:02.819Z,103464.34
2023-01-23T22:27:35.704Z,103477.50
2023-01-23T22:30:09.234Z,103488.22
2023-01-23T22:32:47.903Z,103489.00
2023-01-23T22:35:21.040Z,103486.16
2023-01-23T22:37:56.615Z,103481.41
2023-01-23T22:40:29.536Z,103485.75
2023-01-23T22:43:34.667Z,103475.75
2023-01-23T22:46:33.275Z,103494.44
2023-01-23T22:49:05.939Z,103492.47
2023-01-23T22:51:38.501Z,103495.25
2023-01-23T22:54:11.098Z,103494.47
2023-01-23T22:56:46.735Z,103494.06
2023-01-23T22:59:19.331Z,103498.44
2023-01-23T23:01:51.956Z,103496.09
2023-01-23T23:04:24.525Z,103494.50
2023-01-23T23:07:01.179Z,103500.06
2023-01-23T23:09:33.710Z,103502.88
2023-01-23T23:12:06.281Z,103500.91
2023-01-23T23:14:39.541Z,103510.44
2023-01-23T23:17:29.904Z,103504.09
2023-01-23T23:20:02.670Z,103513.66
2023-01-23T23:22:44.277Z,103515.66
2023-01-23T23:25:17.043Z,103512.88
2023-01-23T23:27:55.634Z,103508.88
2023-01-23T23:30:28.207Z,103508.88
2023-01-23T23:33:19.599Z,103502.50
2023-01-23T23:35:52.530Z,103489.00
2023-01-23T23:38:26.303Z,103488.22
2023-01-23T23:41:05.970Z,103500.13
2023-01-23T23:43:39.030Z,103496.59
2023-01-23T23:46:13.463Z,103487.38
2023-01-23T23:48:48.153Z,103487.00
2023-01-23T23:51:26.740Z,103486.63
2023-01-23T23:53:59.448Z,103489.03
2023-01-23T23:56:32.346Z,103504.22
2023-01-23T23:59:04.944Z,103493.06
